SASA/SLA METAR and TAF weather

Enter ICAO airport designator
Station Type Date Time Source
SASA METAR 2022/12/08 14:00 UTC NOAA

SASA 081400Z 20003KT 130V300 CAVOK 30/14 Q1013 RMK PP000


Station Type Date Time Source
SASA Decoded METAR 2022/12/08 14:00 UTC NOAA

Salta Aerodrome, Argentina (SASA) 24-51S 065-29W 1221M
Dec 08, 2022 - 09:00 AM EST / 2022.12.08 1400 UTC
Wind: from the SSW (200 degrees) at 3 MPH (3 KT) (direction variable):0
Visibility: greater than 7 mile(s):0
Temperature: 86 F (30 C)
Dew Point: 57 F (14 C)
Relative Humidity: 37%
Pressure (altimeter): 29.91 in. Hg (1013 hPa)
ob: SASA 081400Z 20003KT 130V300 CAVOK 30/14 Q1013 RMK PP000
cycle: 14

Station Type Date Time Source
SASA TAF 2022/12/08 12:30 UTC NOAA

TAF SASA 081100Z 0812/0912 VRB03KT CAVOK TX37/0818Z TN19/0909Z
BECMG 0814/0817 05010KT 9999 SCT030 FEW040CB
TEMPO 0821/0823 7000 TSRA SCT025 FEW040CB
BECMG 0900/0903 32005KT 9999 NSC BKN030

Example: see airport list